This is the latest recevied weather packets stored in our database for station/object K4VEB. If no packets are shown the sender has not sent any weather packets the latest 10 day(s).
| Time | Temp. | Humidity | Pressure | Rain* | Wind** | Luminosity | Snow |
|---|---|---|---|---|---|---|---|
| 1777825607 | 22.78° C | 61% | 1018.8 hPa | 0 mm | - | 903 W/m² | - |
| 1777825305 | 22.78° C | 62% | 1018.8 hPa | 0 mm | - | 849 W/m² | - |
| 1777825001 | 22.22° C | 66% | 1018.6 hPa | 0 mm | - | 840 W/m² | - |
| 1777824697 | 22.22° C | 65% | 1018.8 hPa | 0 mm | - | 333 W/m² | - |
| 1777824395 | 22.78° C | 64% | 1019 hPa | 0 mm | - | 274 W/m² | - |
| 1777824090 | 23.33° C | 65% | 1018.9 hPa | 0 mm | - | 919 W/m² | - |
| 1777822577 | 21.67° C | 67% | 1018.8 hPa | 0 mm | - | 233 W/m² | - |
| 1777821971 | 21.67° C | 68% | 1018.8 hPa | 0 mm | - | 798 W/m² | - |
| 1777821669 | 21.67° C | 65% | 1018.8 hPa | 0 mm | - | 268 W/m² | - |
| 1777821367 | 21.11° C | 69% | 1018.6 hPa | 0 mm | - | 643 W/m² | - |
| 1777821063 | 21.11° C | 66% | 1018.7 hPa | 0 mm | - | 696 W/m² | - |
| 1777820456 | 21.11° C | 69% | 1018.6 hPa | 0 mm | - | 650 W/m² | - |
| 1777819851 | 21.11° C | 69% | 1018.4 hPa | 0 mm | - | 314 W/m² | - |
| 1777818032 | 20° C | 73% | 1018.4 hPa | 0 mm | - | 539 W/m² | - |
| 1777817426 | 19.44° C | 76% | 1018.5 hPa | 0 mm | - | 506 W/m² | - |
| 1777811368 | 16.11° C | 93% | 1017.7 hPa | 0 mm | - | 210 W/m² | - |
| 1777809853 | 15.56° C | 93% | 1017.5 hPa | 0 mm | - | 112 W/m² | - |
| 1777805920 | 15.56° C | 94% | 1016.7 hPa | 0 mm | - | 7 W/m² | - |
| 1777804710 | 15.56° C | 94% | 1016.3 hPa | 0 mm | - | 1 W/m² | - |
| 1777804105 | 15° C | 94% | 1016.4 hPa | 0 mm | - | 0 W/m² | - |
| 1777803497 | 15° C | 93% | 1016.4 hPa | 0 mm | - | 0 W/m² | - |
| 1777802891 | 15° C | 93% | 1016.5 hPa | 0 mm | - | 0 W/m² | - |
| 1777802590 | 15° C | 93% | 1016.3 hPa | 0 mm | - | 0 W/m² | - |
| 1777802287 | 15° C | 93% | 1016.2 hPa | 0 mm | - | 0 W/m² | - |
| 1777801986 | 15° C | 93% | 1016.2 hPa | 0 mm | - | 0 W/m² | - |
* Rain latest hour (hover to see other rain measurements)
** Current wind speed in m/s (hover to see current wind gust speed)